sensor_id;sensor_type;location;lat;lon;timestamp;temperature;humidity
13245;DHT22;6689;53.400;12.486;2024-01-30T00:00:33;2.80;1.00
13245;DHT22;6689;53.400;12.486;2024-01-30T00:03:00;2.80;1.00
13245;DHT22;6689;53.400;12.486;2024-01-30T00:05:28;2.80;1.00
13245;DHT22;6689;53.400;12.486;2024-01-30T00:07:56;2.80;1.00
13245;DHT22;6689;53.400;12.486;2024-01-30T00:10:23;2.80;1.00
13245;DHT22;6689;53.400;12.486;2024-01-30T00:12:50;2.80;1.00
13245;DHT22;6689;53.400;12.486;2024-01-30T00:15:19;2.80;1.00
13245;DHT22;6689;53.400;12.486;2024-01-30T00:17:47;2.80;1.00
13245;DHT22;6689;53.400;12.486;2024-01-30T00:20:15;2.80;1.00
13245;DHT22;6689;53.400;12.486;2024-01-30T00:22:42;2.80;1.00
13245;DHT22;6689;53.400;12.486;2024-01-30T00:25:09;2.80;1.00
13245;DHT22;6689;53.400;12.486;2024-01-30T00:27:36;2.80;1.00
13245;DHT22;6689;53.400;12.486;2024-01-30T00:30:04;2.80;1.00
13245;DHT22;6689;53.400;12.486;2024-01-30T00:32:34;2.80;1.00
13245;DHT22;6689;53.400;12.486;2024-01-30T00:35:01;2.80;1.00
13245;DHT22;6689;53.400;12.486;2024-01-30T00:37:28;2.80;1.00
13245;DHT22;6689;53.400;12.486;2024-01-30T00:39:57;3.00;1.00
13245;DHT22;6689;53.400;12.486;2024-01-30T00:42:24;2.70;1.00
13245;DHT22;6689;53.400;12.486;2024-01-30T00:44:51;2.70;1.00
13245;DHT22;6689;53.400;12.486;2024-01-30T00:47:19;2.80;1.00
13245;DHT22;6689;53.400;12.486;2024-01-30T00:49:47;2.70;1.00
13245;DHT22;6689;53.400;12.486;2024-01-30T00:52:15;2.70;1.00
13245;DHT22;6689;53.400;12.486;2024-01-30T00:54:43;2.70;1.00
13245;DHT22;6689;53.400;12.486;2024-01-30T00:57:10;2.70;1.00
13245;DHT22;6689;53.400;12.486;2024-01-30T00:59:38;2.70;1.00
13245;DHT22;6689;53.400;12.486;2024-01-30T01:02:06;2.70;1.00
13245;DHT22;6689;53.400;12.486;2024-01-30T01:04:34;2.70;1.00
13245;DHT22;6689;53.400;12.486;2024-01-30T01:07:02;3.00;1.00
13245;DHT22;6689;53.400;12.486;2024-01-30T01:09:30;2.70;1.00
13245;DHT22;6689;53.400;12.486;2024-01-30T01:11:58;2.70;1.00
13245;DHT22;6689;53.400;12.486;2024-01-30T01:14:25;2.70;1.00
13245;DHT22;6689;53.400;12.486;2024-01-30T01:16:52;2.70;1.00
13245;DHT22;6689;53.400;12.486;2024-01-30T01:19:19;2.60;1.00
13245;DHT22;6689;53.400;12.486;2024-01-30T01:21:46;2.70;1.00
13245;DHT22;6689;53.400;12.486;2024-01-30T01:24:15;2.60;1.00
13245;DHT22;6689;53.400;12.486;2024-01-30T01:26:42;2.60;1.00
13245;DHT22;6689;53.400;12.486;2024-01-30T01:29:10;2.60;1.00
13245;DHT22;6689;53.400;12.486;2024-01-30T01:31:37;2.60;1.00
13245;DHT22;6689;53.400;12.486;2024-01-30T01:34:09;2.60;1.00
13245;DHT22;6689;53.400;12.486;2024-01-30T01:36:37;2.60;1.00
13245;DHT22;6689;53.400;12.486;2024-01-30T01:39:04;2.60;1.00
13245;DHT22;6689;53.400;12.486;2024-01-30T01:41:33;2.60;1.00
13245;DHT22;6689;53.400;12.486;2024-01-30T01:44:01;2.60;1.00
13245;DHT22;6689;53.400;12.486;2024-01-30T01:46:30;2.60;1.00
13245;DHT22;6689;53.400;12.486;2024-01-30T01:48:58;2.60;1.00
13245;DHT22;6689;53.400;12.486;2024-01-30T01:51:27;2.60;1.00
13245;DHT22;6689;53.400;12.486;2024-01-30T01:53:56;2.60;1.00
13245;DHT22;6689;53.400;12.486;2024-01-30T01:56:24;2.60;1.00
13245;DHT22;6689;53.400;12.486;2024-01-30T01:58:55;2.60;1.00
13245;DHT22;6689;53.400;12.486;2024-01-30T02:01:23;2.60;1.00
13245;DHT22;6689;53.400;12.486;2024-01-30T02:03:54;2.60;1.00
13245;DHT22;6689;53.400;12.486;2024-01-30T02:06:22;2.60;1.00
13245;DHT22;6689;53.400;12.486;2024-01-30T02:08:49;2.50;1.00
13245;DHT22;6689;53.400;12.486;2024-01-30T02:11:17;2.50;1.00
13245;DHT22;6689;53.400;12.486;2024-01-30T02:13:45;2.60;1.00
13245;DHT22;6689;53.400;12.486;2024-01-30T02:16:14;2.50;1.00
13245;DHT22;6689;53.400;12.486;2024-01-30T02:18:41;2.50;1.00
13245;DHT22;6689;53.400;12.486;2024-01-30T02:21:13;2.50;1.00
13245;DHT22;6689;53.400;12.486;2024-01-30T02:23:41;2.40;1.00
13245;DHT22;6689;53.400;12.486;2024-01-30T02:26:10;2.40;1.00
13245;DHT22;6689;53.400;12.486;2024-01-30T02:28:38;2.40;1.00
13245;DHT22;6689;53.400;12.486;2024-01-30T02:31:05;2.40;1.00
13245;DHT22;6689;53.400;12.486;2024-01-30T02:33:33;2.40;1.00
13245;DHT22;6689;53.400;12.486;2024-01-30T02:36:00;2.40;1.00
13245;DHT22;6689;53.400;12.486;2024-01-30T02:38:29;2.40;1.00
13245;DHT22;6689;53.400;12.486;2024-01-30T02:40:56;2.30;1.00
13245;DHT22;6689;53.400;12.486;2024-01-30T02:43:24;2.30;1.00
13245;DHT22;6689;53.400;12.486;2024-01-30T02:45:52;2.30;1.00
13245;DHT22;6689;53.400;12.486;2024-01-30T02:48:19;2.30;1.00
13245;DHT22;6689;53.400;12.486;2024-01-30T02:50:48;2.30;1.00
13245;DHT22;6689;53.400;12.486;2024-01-30T02:53:19;2.30;1.00
13245;DHT22;6689;53.400;12.486;2024-01-30T02:55:48;2.30;1.00
13245;DHT22;6689;53.400;12.486;2024-01-30T02:58:15;2.30;1.00
13245;DHT22;6689;53.400;12.486;2024-01-30T03:00:43;2.30;1.00
13245;DHT22;6689;53.400;12.486;2024-01-30T03:03:10;2.20;1.00
13245;DHT22;6689;53.400;12.486;2024-01-30T03:05:39;2.30;1.00
13245;DHT22;6689;53.400;12.486;2024-01-30T03:08:07;2.20;1.00
13245;DHT22;6689;53.400;12.486;2024-01-30T03:10:36;2.30;1.00
13245;DHT22;6689;53.400;12.486;2024-01-30T03:13:05;2.30;1.00
13245;DHT22;6689;53.400;12.486;2024-01-30T03:15:34;2.20;1.00
13245;DHT22;6689;53.400;12.486;2024-01-30T03:18:02;2.20;1.00
13245;DHT22;6689;53.400;12.486;2024-01-30T03:20:29;2.20;1.00
13245;DHT22;6689;53.400;12.486;2024-01-30T03:22:59;2.20;1.00
13245;DHT22;6689;53.400;12.486;2024-01-30T03:25:27;2.20;1.00
13245;DHT22;6689;53.400;12.486;2024-01-30T03:27:54;2.20;1.00
13245;DHT22;6689;53.400;12.486;2024-01-30T03:30:28;2.20;1.00
13245;DHT22;6689;53.400;12.486;2024-01-30T03:32:55;2.20;1.00
13245;DHT22;6689;53.400;12.486;2024-01-30T03:35:22;2.20;1.00
13245;DHT22;6689;53.400;12.486;2024-01-30T03:37:50;2.20;1.00
13245;DHT22;6689;53.400;12.486;2024-01-30T03:40:29;2.20;1.00
13245;DHT22;6689;53.400;12.486;2024-01-30T03:42:56;2.20;1.00
13245;DHT22;6689;53.400;12.486;2024-01-30T03:45:25;2.20;1.00
13245;DHT22;6689;53.400;12.486;2024-01-30T03:47:52;2.20;1.00
13245;DHT22;6689;53.400;12.486;2024-01-30T03:50:20;2.20;1.00
13245;DHT22;6689;53.400;12.486;2024-01-30T03:52:47;2.20;1.00
13245;DHT22;6689;53.400;12.486;2024-01-30T03:55:15;2.20;1.00
13245;DHT22;6689;53.400;12.486;2024-01-30T03:57:42;2.20;1.00
13245;DHT22;6689;53.400;12.486;2024-01-30T04:00:10;2.20;1.00
13245;DHT22;6689;53.400;12.486;2024-01-30T04:02:39;2.20;1.00
13245;DHT22;6689;53.400;12.486;2024-01-30T04:05:07;2.20;1.00
13245;DHT22;6689;53.400;12.486;2024-01-30T04:07:35;2.20;1.00
13245;DHT22;6689;53.400;12.486;2024-01-30T04:10:03;2.20;1.00
13245;DHT22;6689;53.400;12.486;2024-01-30T04:12:31;2.20;1.00
13245;DHT22;6689;53.400;12.486;2024-01-30T04:14:59;2.20;1.00
13245;DHT22;6689;53.400;12.486;2024-01-30T04:17:26;2.20;1.00
13245;DHT22;6689;53.400;12.486;2024-01-30T04:19:56;2.20;1.00
13245;DHT22;6689;53.400;12.486;2024-01-30T04:22:23;2.30;1.00
13245;DHT22;6689;53.400;12.486;2024-01-30T04:24:51;2.20;1.00
13245;DHT22;6689;53.400;12.486;2024-01-30T04:27:18;2.20;1.00
13245;DHT22;6689;53.400;12.486;2024-01-30T04:29:46;2.20;1.00
13245;DHT22;6689;53.400;12.486;2024-01-30T04:32:14;2.20;1.00
13245;DHT22;6689;53.400;12.486;2024-01-30T04:34:41;2.20;1.00
13245;DHT22;6689;53.400;12.486;2024-01-30T04:37:11;2.20;1.00
13245;DHT22;6689;53.400;12.486;2024-01-30T04:39:38;2.20;1.00
13245;DHT22;6689;53.400;12.486;2024-01-30T04:42:06;2.20;1.00
13245;DHT22;6689;53.400;12.486;2024-01-30T04:44:34;2.20;1.00
13245;DHT22;6689;53.400;12.486;2024-01-30T04:47:02;2.20;1.00
13245;DHT22;6689;53.400;12.486;2024-01-30T04:49:30;2.20;1.00
13245;DHT22;6689;53.400;12.486;2024-01-30T04:51:58;2.20;1.00
13245;DHT22;6689;53.400;12.486;2024-01-30T04:54:26;2.20;1.00
13245;DHT22;6689;53.400;12.486;2024-01-30T04:56:54;2.20;1.00
13245;DHT22;6689;53.400;12.486;2024-01-30T04:59:21;2.20;1.00
13245;DHT22;6689;53.400;12.486;2024-01-30T05:01:49;2.20;1.00
13245;DHT22;6689;53.400;12.486;2024-01-30T05:04:16;2.20;1.00
13245;DHT22;6689;53.400;12.486;2024-01-30T05:06:44;2.20;1.00
13245;DHT22;6689;53.400;12.486;2024-01-30T05:09:11;2.20;1.00
13245;DHT22;6689;53.400;12.486;2024-01-30T05:11:41;2.20;1.00
13245;DHT22;6689;53.400;12.486;2024-01-30T05:14:08;2.20;1.00
13245;DHT22;6689;53.400;12.486;2024-01-30T05:16:37;2.20;1.00
13245;DHT22;6689;53.400;12.486;2024-01-30T05:19:04;2.20;1.00
13245;DHT22;6689;53.400;12.486;2024-01-30T05:21:32;2.20;1.00
13245;DHT22;6689;53.400;12.486;2024-01-30T05:23:59;2.20;1.00
13245;DHT22;6689;53.400;12.486;2024-01-30T05:26:26;2.20;1.00
13245;DHT22;6689;53.400;12.486;2024-01-30T05:28:56;2.30;1.00
13245;DHT22;6689;53.400;12.486;2024-01-30T05:31:24;2.20;1.00
13245;DHT22;6689;53.400;12.486;2024-01-30T05:33:53;2.20;1.00
13245;DHT22;6689;53.400;12.486;2024-01-30T05:36:20;2.20;1.00
13245;DHT22;6689;53.400;12.486;2024-01-30T05:38:48;2.20;1.00
13245;DHT22;6689;53.400;12.486;2024-01-30T05:41:15;2.20;1.00
13245;DHT22;6689;53.400;12.486;2024-01-30T05:43:44;2.20;1.00
13245;DHT22;6689;53.400;12.486;2024-01-30T05:46:14;2.20;1.00
13245;DHT22;6689;53.400;12.486;2024-01-30T05:48:41;2.30;1.00
13245;DHT22;6689;53.400;12.486;2024-01-30T05:51:11;2.30;1.00
13245;DHT22;6689;53.400;12.486;2024-01-30T05:53:40;2.30;1.00
13245;DHT22;6689;53.400;12.486;2024-01-30T05:56:07;2.20;1.00
13245;DHT22;6689;53.400;12.486;2024-01-30T05:58:35;2.20;1.00
13245;DHT22;6689;53.400;12.486;2024-01-30T06:01:06;2.20;1.00
13245;DHT22;6689;53.400;12.486;2024-01-30T06:03:35;2.20;1.00
13245;DHT22;6689;53.400;12.486;2024-01-30T06:06:04;2.20;1.00
13245;DHT22;6689;53.400;12.486;2024-01-30T06:08:32;2.20;1.00
13245;DHT22;6689;53.400;12.486;2024-01-30T06:11:00;2.30;1.00
13245;DHT22;6689;53.400;12.486;2024-01-30T06:13:27;2.20;1.00
13245;DHT22;6689;53.400;12.486;2024-01-30T06:15:57;2.30;1.00
13245;DHT22;6689;53.400;12.486;2024-01-30T06:18:24;2.20;1.00
13245;DHT22;6689;53.400;12.486;2024-01-30T06:20:54;2.20;1.00
13245;DHT22;6689;53.400;12.486;2024-01-30T06:23:21;2.20;1.00
13245;DHT22;6689;53.400;12.486;2024-01-30T06:25:48;2.20;1.00
13245;DHT22;6689;53.400;12.486;2024-01-30T06:28:16;2.30;1.00
13245;DHT22;6689;53.400;12.486;2024-01-30T06:30:44;2.20;1.00
13245;DHT22;6689;53.400;12.486;2024-01-30T06:33:12;2.20;1.00
13245;DHT22;6689;53.400;12.486;2024-01-30T06:35:41;2.20;1.00
13245;DHT22;6689;53.400;12.486;2024-01-30T06:38:10;2.30;1.00
13245;DHT22;6689;53.400;12.486;2024-01-30T06:40:39;2.10;1.00
13245;DHT22;6689;53.400;12.486;2024-01-30T06:43:06;2.10;1.00
13245;DHT22;6689;53.400;12.486;2024-01-30T06:45:35;2.10;1.00
13245;DHT22;6689;53.400;12.486;2024-01-30T06:48:03;2.10;1.00
13245;DHT22;6689;53.400;12.486;2024-01-30T06:50:30;2.10;1.00
13245;DHT22;6689;53.400;12.486;2024-01-30T06:52:58;2.10;1.00
13245;DHT22;6689;53.400;12.486;2024-01-30T06:55:27;2.10;1.00
13245;DHT22;6689;53.400;12.486;2024-01-30T06:57:54;2.10;1.00
13245;DHT22;6689;53.400;12.486;2024-01-30T07:00:21;2.10;1.00
13245;DHT22;6689;53.400;12.486;2024-01-30T07:02:49;2.10;1.00
13245;DHT22;6689;53.400;12.486;2024-01-30T07:05:16;2.10;1.00
13245;DHT22;6689;53.400;12.486;2024-01-30T07:07:47;2.10;1.00
13245;DHT22;6689;53.400;12.486;2024-01-30T07:10:14;2.10;1.00
13245;DHT22;6689;53.400;12.486;2024-01-30T07:12:43;2.10;1.00
13245;DHT22;6689;53.400;12.486;2024-01-30T07:15:11;2.10;1.00
13245;DHT22;6689;53.400;12.486;2024-01-30T07:17:40;2.00;1.00
13245;DHT22;6689;53.400;12.486;2024-01-30T07:20:09;2.10;1.00
13245;DHT22;6689;53.400;12.486;2024-01-30T07:22:37;2.10;1.00
13245;DHT22;6689;53.400;12.486;2024-01-30T07:25:05;2.30;1.00
13245;DHT22;6689;53.400;12.486;2024-01-30T07:27:32;2.10;1.00
13245;DHT22;6689;53.400;12.486;2024-01-30T07:30:02;2.20;1.00
13245;DHT22;6689;53.400;12.486;2024-01-30T07:32:29;2.20;1.00
13245;DHT22;6689;53.400;12.486;2024-01-30T07:34:57;2.20;1.00
13245;DHT22;6689;53.400;12.486;2024-01-30T07:37:24;2.20;1.00
13245;DHT22;6689;53.400;12.486;2024-01-30T07:39:51;2.20;1.00
13245;DHT22;6689;53.400;12.486;2024-01-30T07:42:19;2.20;1.00
13245;DHT22;6689;53.400;12.486;2024-01-30T07:44:46;2.30;1.00
13245;DHT22;6689;53.400;12.486;2024-01-30T07:47:14;2.30;1.00
13245;DHT22;6689;53.400;12.486;2024-01-30T07:49:41;2.40;1.00
13245;DHT22;6689;53.400;12.486;2024-01-30T07:52:09;2.40;1.00
13245;DHT22;6689;53.400;12.486;2024-01-30T07:54:41;2.40;1.00
13245;DHT22;6689;53.400;12.486;2024-01-30T07:57:08;2.40;1.00
13245;DHT22;6689;53.400;12.486;2024-01-30T07:59:35;2.40;1.00
13245;DHT22;6689;53.400;12.486;2024-01-30T08:02:02;2.50;1.00
13245;DHT22;6689;53.400;12.486;2024-01-30T08:04:31;2.50;1.00
13245;DHT22;6689;53.400;12.486;2024-01-30T08:06:58;2.50;1.00
13245;DHT22;6689;53.400;12.486;2024-01-30T08:09:26;2.50;1.00
13245;DHT22;6689;53.400;12.486;2024-01-30T08:11:54;2.50;1.00
13245;DHT22;6689;53.400;12.486;2024-01-30T08:14:21;2.50;1.00
13245;DHT22;6689;53.400;12.486;2024-01-30T08:16:50;2.60;1.00
13245;DHT22;6689;53.400;12.486;2024-01-30T08:19:19;2.60;1.00
13245;DHT22;6689;53.400;12.486;2024-01-30T08:21:48;2.60;1.00
13245;DHT22;6689;53.400;12.486;2024-01-30T08:24:15;2.70;1.00
13245;DHT22;6689;53.400;12.486;2024-01-30T08:26:45;2.70;1.00
13245;DHT22;6689;53.400;12.486;2024-01-30T08:29:13;2.70;1.00
13245;DHT22;6689;53.400;12.486;2024-01-30T08:31:41;2.70;15.80
13245;DHT22;6689;53.400;12.486;2024-01-30T08:34:08;2.70;36.40
13245;DHT22;6689;53.400;12.486;2024-01-30T08:36:37;2.70;75.80
13245;DHT22;6689;53.400;12.486;2024-01-30T08:39:05;3.00;99.90
13245;DHT22;6689;53.400;12.486;2024-01-30T08:41:33;2.80;99.90
13245;DHT22;6689;53.400;12.486;2024-01-30T08:44:00;2.90;99.90
13245;DHT22;6689;53.400;12.486;2024-01-30T08:46:29;2.90;99.90
13245;DHT22;6689;53.400;12.486;2024-01-30T08:48:56;2.90;99.90
13245;DHT22;6689;53.400;12.486;2024-01-30T08:51:23;3.00;99.90
13245;DHT22;6689;53.400;12.486;2024-01-30T08:53:50;3.00;99.90
13245;DHT22;6689;53.400;12.486;2024-01-30T08:56:21;3.10;99.90
13245;DHT22;6689;53.400;12.486;2024-01-30T08:58:49;3.10;99.90
13245;DHT22;6689;53.400;12.486;2024-01-30T09:01:18;3.20;99.90
13245;DHT22;6689;53.400;12.486;2024-01-30T09:03:45;3.10;99.90
13245;DHT22;6689;53.400;12.486;2024-01-30T09:06:13;3.20;99.90
13245;DHT22;6689;53.400;12.486;2024-01-30T09:08:41;3.30;99.90
13245;DHT22;6689;53.400;12.486;2024-01-30T09:11:12;3.60;99.90
13245;DHT22;6689;53.400;12.486;2024-01-30T09:13:41;3.40;99.90
13245;DHT22;6689;53.400;12.486;2024-01-30T09:16:09;3.50;99.90
13245;DHT22;6689;53.400;12.486;2024-01-30T09:18:36;3.60;99.90
13245;DHT22;6689;53.400;12.486;2024-01-30T09:21:04;3.70;99.90
13245;DHT22;6689;53.400;12.486;2024-01-30T09:23:31;3.70;99.90
13245;DHT22;6689;53.400;12.486;2024-01-30T09:25:59;3.80;99.90
13245;DHT22;6689;53.400;12.486;2024-01-30T09:28:26;3.90;99.90
13245;DHT22;6689;53.400;12.486;2024-01-30T09:30:55;3.90;99.90
13245;DHT22;6689;53.400;12.486;2024-01-30T09:33:24;4.10;99.90
13245;DHT22;6689;53.400;12.486;2024-01-30T09:35:51;4.10;99.90
13245;DHT22;6689;53.400;12.486;2024-01-30T09:38:18;4.20;99.90
13245;DHT22;6689;53.400;12.486;2024-01-30T09:40:54;4.40;99.90
13245;DHT22;6689;53.400;12.486;2024-01-30T09:43:24;4.30;99.90
13245;DHT22;6689;53.400;12.486;2024-01-30T09:45:52;4.30;99.90
13245;DHT22;6689;53.400;12.486;2024-01-30T09:48:21;4.40;97.80
13245;DHT22;6689;53.400;12.486;2024-01-30T09:50:50;4.40;92.10
13245;DHT22;6689;53.400;12.486;2024-01-30T09:53:21;4.40;99.90
13245;DHT22;6689;53.400;12.486;2024-01-30T09:55:50;4.50;77.10
13245;DHT22;6689;53.400;12.486;2024-01-30T09:58:17;4.50;66.00
13245;DHT22;6689;53.400;12.486;2024-01-30T10:00:44;4.60;68.90
13245;DHT22;6689;53.400;12.486;2024-01-30T10:03:11;4.60;60.60
13245;DHT22;6689;53.400;12.486;2024-01-30T10:05:45;4.60;47.80
13245;DHT22;6689;53.400;12.486;2024-01-30T10:08:18;4.60;55.50
13245;DHT22;6689;53.400;12.486;2024-01-30T10:10:46;4.60;46.20
13245;DHT22;6689;53.400;12.486;2024-01-30T10:13:13;4.60;32.90
13245;DHT22;6689;53.400;12.486;2024-01-30T10:15:41;4.70;39.00
13245;DHT22;6689;53.400;12.486;2024-01-30T10:18:09;4.80;47.80
13245;DHT22;6689;53.400;12.486;2024-01-30T10:20:37;4.80;35.70
13245;DHT22;6689;53.400;12.486;2024-01-30T10:23:06;4.80;31.80
13245;DHT22;6689;53.400;12.486;2024-01-30T10:25:34;4.90;27.00
13245;DHT22;6689;53.400;12.486;2024-01-30T10:28:04;4.90;23.20
13245;DHT22;6689;53.400;12.486;2024-01-30T10:30:32;5.00;31.20
13245;DHT22;6689;53.400;12.486;2024-01-30T10:32:59;5.10;34.90
13245;DHT22;6689;53.400;12.486;2024-01-30T10:35:27;5.20;32.70
13245;DHT22;6689;53.400;12.486;2024-01-30T10:37:57;5.20;20.60
13245;DHT22;6689;53.400;12.486;2024-01-30T10:40:28;5.30;19.40
13245;DHT22;6689;53.400;12.486;2024-01-30T10:42:56;5.30;16.50
13245;DHT22;6689;53.400;12.486;2024-01-30T10:45:25;5.40;7.80
13245;DHT22;6689;53.400;12.486;2024-01-30T10:47:55;5.10;10.90
13245;DHT22;6689;53.400;12.486;2024-01-30T10:50:25;5.50;2.20
13245;DHT22;6689;53.400;12.486;2024-01-30T10:52:53;5.60;3.40
13245;DHT22;6689;53.400;12.486;2024-01-30T10:55:23;5.70;13.10
13245;DHT22;6689;53.400;12.486;2024-01-30T10:57:52;5.70;1.00
13245;DHT22;6689;53.400;12.486;2024-01-30T11:00:20;5.80;1.00
13245;DHT22;6689;53.400;12.486;2024-01-30T11:02:50;5.80;1.00
13245;DHT22;6689;53.400;12.486;2024-01-30T11:05:24;5.90;1.00
13245;DHT22;6689;53.400;12.486;2024-01-30T11:07:52;5.90;1.00
13245;DHT22;6689;53.400;12.486;2024-01-30T11:10:19;6.00;1.00
13245;DHT22;6689;53.400;12.486;2024-01-30T11:12:47;5.90;1.00
13245;DHT22;6689;53.400;12.486;2024-01-30T11:15:19;6.00;1.00
13245;DHT22;6689;53.400;12.486;2024-01-30T11:17:51;6.20;1.00
13245;DHT22;6689;53.400;12.486;2024-01-30T11:20:20;6.20;1.00
13245;DHT22;6689;53.400;12.486;2024-01-30T11:22:50;6.30;1.00
13245;DHT22;6689;53.400;12.486;2024-01-30T11:25:20;6.30;1.00
13245;DHT22;6689;53.400;12.486;2024-01-30T11:27:50;6.40;1.00
13245;DHT22;6689;53.400;12.486;2024-01-30T11:30:25;6.50;1.00
13245;DHT22;6689;53.400;12.486;2024-01-30T11:33:00;6.60;1.00
13245;DHT22;6689;53.400;12.486;2024-01-30T11:35:31;6.70;1.00
13245;DHT22;6689;53.400;12.486;2024-01-30T11:38:00;6.80;1.00
13245;DHT22;6689;53.400;12.486;2024-01-30T11:40:28;6.90;1.00
13245;DHT22;6689;53.400;12.486;2024-01-30T11:42:55;7.00;1.00
13245;DHT22;6689;53.400;12.486;2024-01-30T11:45:24;7.10;1.00
13245;DHT22;6689;53.400;12.486;2024-01-30T11:47:51;7.10;1.00
13245;DHT22;6689;53.400;12.486;2024-01-30T11:50:20;7.20;1.00
13245;DHT22;6689;53.400;12.486;2024-01-30T11:52:48;7.20;1.00
13245;DHT22;6689;53.400;12.486;2024-01-30T11:55:17;7.20;1.00
13245;DHT22;6689;53.400;12.486;2024-01-30T11:57:44;7.30;1.00
13245;DHT22;6689;53.400;12.486;2024-01-30T12:00:14;7.30;1.00
13245;DHT22;6689;53.400;12.486;2024-01-30T12:02:48;7.40;1.00
13245;DHT22;6689;53.400;12.486;2024-01-30T12:05:16;7.40;1.00
13245;DHT22;6689;53.400;12.486;2024-01-30T12:07:46;7.50;1.00
13245;DHT22;6689;53.400;12.486;2024-01-30T12:10:14;7.50;1.00
13245;DHT22;6689;53.400;12.486;2024-01-30T12:12:42;7.60;1.00
13245;DHT22;6689;53.400;12.486;2024-01-30T12:15:10;7.60;1.00
13245;DHT22;6689;53.400;12.486;2024-01-30T12:17:38;7.60;1.00
13245;DHT22;6689;53.400;12.486;2024-01-30T12:20:08;7.70;1.00
13245;DHT22;6689;53.400;12.486;2024-01-30T12:22:38;7.80;1.00
13245;DHT22;6689;53.400;12.486;2024-01-30T12:25:07;7.80;1.00
13245;DHT22;6689;53.400;12.486;2024-01-30T12:27:36;7.90;1.00
13245;DHT22;6689;53.400;12.486;2024-01-30T12:30:06;7.90;1.00
13245;DHT22;6689;53.400;12.486;2024-01-30T12:32:35;7.90;1.00
13245;DHT22;6689;53.400;12.486;2024-01-30T12:35:04;7.90;1.00
13245;DHT22;6689;53.400;12.486;2024-01-30T12:37:35;7.90;1.00
13245;DHT22;6689;53.400;12.486;2024-01-30T12:40:02;7.90;1.00
13245;DHT22;6689;53.400;12.486;2024-01-30T12:42:30;7.90;1.00
13245;DHT22;6689;53.400;12.486;2024-01-30T12:44:57;7.90;1.00
13245;DHT22;6689;53.400;12.486;2024-01-30T12:47:25;7.90;1.00
13245;DHT22;6689;53.400;12.486;2024-01-30T12:49:52;7.90;1.00
13245;DHT22;6689;53.400;12.486;2024-01-30T12:52:21;7.90;1.00
13245;DHT22;6689;53.400;12.486;2024-01-30T12:54:50;7.90;1.00
13245;DHT22;6689;53.400;12.486;2024-01-30T12:57:21;7.90;1.00
13245;DHT22;6689;53.400;12.486;2024-01-30T12:59:48;7.90;1.00
13245;DHT22;6689;53.400;12.486;2024-01-30T13:02:16;7.90;1.00
13245;DHT22;6689;53.400;12.486;2024-01-30T13:04:46;7.90;1.00
13245;DHT22;6689;53.400;12.486;2024-01-30T13:07:13;7.90;1.00
13245;DHT22;6689;53.400;12.486;2024-01-30T13:09:40;7.90;1.00
13245;DHT22;6689;53.400;12.486;2024-01-30T13:12:09;7.90;1.00
13245;DHT22;6689;53.400;12.486;2024-01-30T13:14:37;7.90;1.00
13245;DHT22;6689;53.400;12.486;2024-01-30T13:17:04;7.90;1.00
13245;DHT22;6689;53.400;12.486;2024-01-30T13:19:32;7.90;1.00
13245;DHT22;6689;53.400;12.486;2024-01-30T13:22:01;7.90;1.00
13245;DHT22;6689;53.400;12.486;2024-01-30T13:24:29;7.90;1.00
13245;DHT22;6689;53.400;12.486;2024-01-30T13:26:57;7.80;1.00
13245;DHT22;6689;53.400;12.486;2024-01-30T13:29:26;7.80;1.00
13245;DHT22;6689;53.400;12.486;2024-01-30T13:31:53;7.80;1.00
13245;DHT22;6689;53.400;12.486;2024-01-30T13:34:21;7.80;1.00
13245;DHT22;6689;53.400;12.486;2024-01-30T13:36:50;7.80;1.00
13245;DHT22;6689;53.400;12.486;2024-01-30T13:39:17;7.80;1.00
13245;DHT22;6689;53.400;12.486;2024-01-30T13:41:44;7.70;1.00
13245;DHT22;6689;53.400;12.486;2024-01-30T13:44:14;7.70;1.00
13245;DHT22;6689;53.400;12.486;2024-01-30T13:46:43;7.70;1.00
13245;DHT22;6689;53.400;12.486;2024-01-30T13:49:11;7.70;1.00
13245;DHT22;6689;53.400;12.486;2024-01-30T13:51:38;7.60;1.00
13245;DHT22;6689;53.400;12.486;2024-01-30T13:54:05;7.70;1.00
13245;DHT22;6689;53.400;12.486;2024-01-30T13:56:33;7.60;1.00
13245;DHT22;6689;53.400;12.486;2024-01-30T13:59:01;7.60;1.00
13245;DHT22;6689;53.400;12.486;2024-01-30T14:01:31;7.60;1.00
13245;DHT22;6689;53.400;12.486;2024-01-30T14:03:59;7.70;1.00
13245;DHT22;6689;53.400;12.486;2024-01-30T14:06:26;7.60;1.00
13245;DHT22;6689;53.400;12.486;2024-01-30T14:08:54;7.60;1.00
13245;DHT22;6689;53.400;12.486;2024-01-30T14:11:21;7.60;1.00
13245;DHT22;6689;53.400;12.486;2024-01-30T14:13:48;7.60;1.00
13245;DHT22;6689;53.400;12.486;2024-01-30T14:16:15;7.60;1.00
13245;DHT22;6689;53.400;12.486;2024-01-30T14:18:42;7.60;1.00
13245;DHT22;6689;53.400;12.486;2024-01-30T14:21:14;7.60;1.00
13245;DHT22;6689;53.400;12.486;2024-01-30T14:23:41;7.60;1.00
13245;DHT22;6689;53.400;12.486;2024-01-30T14:26:08;7.60;1.00
13245;DHT22;6689;53.400;12.486;2024-01-30T14:28:35;7.60;1.00
13245;DHT22;6689;53.400;12.486;2024-01-30T14:31:03;7.60;1.00
13245;DHT22;6689;53.400;12.486;2024-01-30T14:33:30;7.60;1.00
13245;DHT22;6689;53.400;12.486;2024-01-30T14:35:58;7.50;1.00
13245;DHT22;6689;53.400;12.486;2024-01-30T14:38:27;7.50;1.00
13245;DHT22;6689;53.400;12.486;2024-01-30T14:40:55;7.60;1.00
13245;DHT22;6689;53.400;12.486;2024-01-30T14:43:21;7.50;1.00
13245;DHT22;6689;53.400;12.486;2024-01-30T14:45:48;7.50;1.00
13245;DHT22;6689;53.400;12.486;2024-01-30T14:48:18;7.50;1.00
13245;DHT22;6689;53.400;12.486;2024-01-30T14:50:46;7.40;1.00
13245;DHT22;6689;53.400;12.486;2024-01-30T14:53:13;7.50;1.00
13245;DHT22;6689;53.400;12.486;2024-01-30T14:55:42;7.50;1.00
13245;DHT22;6689;53.400;12.486;2024-01-30T14:58:09;7.40;1.00
13245;DHT22;6689;53.400;12.486;2024-01-30T15:00:37;7.40;1.00
13245;DHT22;6689;53.400;12.486;2024-01-30T15:03:04;7.50;1.00
13245;DHT22;6689;53.400;12.486;2024-01-30T15:05:30;7.50;1.00
13245;DHT22;6689;53.400;12.486;2024-01-30T15:07:58;7.40;1.00
13245;DHT22;6689;53.400;12.486;2024-01-30T15:10:26;7.40;1.00
13245;DHT22;6689;53.400;12.486;2024-01-30T15:12:55;7.40;1.00
13245;DHT22;6689;53.400;12.486;2024-01-30T15:15:22;7.40;1.00
13245;DHT22;6689;53.400;12.486;2024-01-30T15:17:49;7.40;1.00
13245;DHT22;6689;53.400;12.486;2024-01-30T15:20:17;7.40;1.00
13245;DHT22;6689;53.400;12.486;2024-01-30T15:22:44;7.40;1.00
13245;DHT22;6689;53.400;12.486;2024-01-30T15:25:12;7.40;1.00
13245;DHT22;6689;53.400;12.486;2024-01-30T15:27:39;7.40;1.00
13245;DHT22;6689;53.400;12.486;2024-01-30T15:30:11;7.40;1.00
13245;DHT22;6689;53.400;12.486;2024-01-30T15:32:39;7.30;1.00
13245;DHT22;6689;53.400;12.486;2024-01-30T15:35:07;7.30;1.00
13245;DHT22;6689;53.400;12.486;2024-01-30T15:37:35;7.30;1.00
13245;DHT22;6689;53.400;12.486;2024-01-30T15:40:06;7.40;1.00
13245;DHT22;6689;53.400;12.486;2024-01-30T15:42:34;7.30;1.00
13245;DHT22;6689;53.400;12.486;2024-01-30T15:45:02;7.30;1.00
13245;DHT22;6689;53.400;12.486;2024-01-30T15:47:31;7.30;1.00
13245;DHT22;6689;53.400;12.486;2024-01-30T15:49:59;7.30;1.00
13245;DHT22;6689;53.400;12.486;2024-01-30T15:52:26;7.30;1.00
13245;DHT22;6689;53.400;12.486;2024-01-30T15:54:54;7.30;1.00
13245;DHT22;6689;53.400;12.486;2024-01-30T15:57:21;7.30;1.00
13245;DHT22;6689;53.400;12.486;2024-01-30T15:59:48;7.30;1.00
13245;DHT22;6689;53.400;12.486;2024-01-30T16:02:17;7.30;1.00
13245;DHT22;6689;53.400;12.486;2024-01-30T16:04:47;7.30;1.00